Time;durP1;ratioP1;P1;durP2;ratioP2;P2;SDS_P1;SDS_P2;PMS_P1;PMS_P2;Temp;Humidity;BMP_temperature;BMP_pressure;BME280_temperature;BME280_humidity;BME280_pressure;Samples;Min_cycle;Max_cycle;Signal;HPM_P1;HPM_P2
2021/12/06 00:00:15;;;;;;;1.13;1.02;;;2.70;99.90;;;;;;5094575;28;20044;-79
2021/12/06 00:02:41;;;;;;;5.60;1.55;;;2.70;99.90;;;;;;5094249;28;20491;-80
2021/12/06 00:05:08;;;;;;;1.85;1.75;;;2.70;99.90;;;;;;5093161;28;20083;-81
2021/12/06 00:07:33;;;;;;;1.13;1.05;;;2.70;99.90;;;;;;5094342;28;20524;-81
2021/12/06 00:09:59;;;;;;;0.60;0.60;;;2.70;99.90;;;;;;5094271;28;20040;-80
2021/12/06 00:12:25;;;;;;;0.75;0.75;;;2.70;99.90;;;;;;5094442;28;20092;-81
2021/12/06 00:14:50;;;;;;;6.43;6.00;;;2.70;99.90;;;;;;5094489;28;20050;-79
2021/12/06 00:17:16;;;;;;;0.80;0.80;;;2.70;99.90;;;;;;5093911;28;20071;-80
2021/12/06 00:19:43;;;;;;;0.70;0.70;;;2.70;99.90;;;;;;5094151;28;20044;-79
2021/12/06 00:22:13;;;;;;;2.00;1.85;;;2.60;99.90;;;;;;5093795;28;20282;-80
2021/12/06 00:24:39;;;;;;;5.07;2.42;;;2.70;99.90;;;;;;5093056;28;20047;-80
2021/12/06 00:27:05;;;;;;;0.70;0.70;;;2.70;99.90;;;;;;5094072;28;20422;-79
2021/12/06 00:29:31;;;;;;;3.22;2.95;;;2.70;99.90;;;;;;5093999;28;20085;-80
2021/12/06 00:31:57;;;;;;;1.63;1.52;;;2.70;99.90;;;;;;5093081;28;20079;-80
2021/12/06 00:34:25;;;;;;;1.25;1.15;;;2.70;99.90;;;;;;5093904;28;20503;-81
2021/12/06 00:37:05;;;;;;;0.68;0.68;;;2.70;99.90;;;;;;5093869;28;20044;-80
2021/12/06 00:39:31;;;;;;;0.60;0.60;;;2.70;99.90;;;;;;5076285;28;20044;-80
2021/12/06 00:41:57;;;;;;;1.00;0.95;;;2.70;99.90;;;;;;5109854;28;20399;-80
2021/12/06 00:44:23;;;;;;;3.23;2.93;;;2.60;99.90;;;;;;5092771;28;20395;-81
2021/12/06 00:46:49;;;;;;;2.13;1.98;;;2.50;99.90;;;;;;5093804;28;20037;-80
2021/12/06 00:49:14;;;;;;;2.45;2.25;;;2.50;99.90;;;;;;5092717;28;20097;-79
2021/12/06 00:51:40;;;;;;;1.90;1.75;;;2.40;99.90;;;;;;5093428;28;20040;-79
2021/12/06 00:54:09;;;;;;;4.45;4.03;;;2.40;99.90;;;;;;5093703;28;20044;-80
2021/12/06 00:56:36;;;;;;;0.80;0.80;;;2.40;99.90;;;;;;5094022;28;20040;-79
2021/12/06 00:59:01;;;;;;;0.70;0.70;;;3.00;99.90;;;;;;5096620;28;20119;-80
2021/12/06 01:01:27;;;;;;;0.60;0.60;;;2.40;99.90;;;;;;5097924;28;20561;-80
2021/12/06 01:03:53;;;;;;;1.00;0.95;;;2.50;99.90;;;;;;5097802;28;20040;-81
2021/12/06 01:06:18;;;;;;;0.80;0.80;;;2.40;99.90;;;;;;5096899;28;20480;-81
2021/12/06 01:08:44;;;;;;;1.00;1.00;;;2.50;99.90;;;;;;5097854;28;20032;-79
2021/12/06 01:11:10;;;;;;;0.68;0.68;;;2.50;99.90;;;;;;5098021;28;20093;-79
2021/12/06 01:13:36;;;;;;;1.70;1.60;;;2.50;99.90;;;;;;5097792;28;20395;-78
2021/12/06 01:16:03;;;;;;;0.75;0.75;;;2.50;99.90;;;;;;5097661;28;20139;-80
2021/12/06 01:18:29;;;;;;;2.05;1.85;;;2.50;99.90;;;;;;5079667;28;20463;-79
2021/12/06 01:21:15;;;;;;;3.42;3.15;;;2.50;99.90;;;;;;5097526;28;20090;-80
2021/12/06 01:23:51;;;;;;;2.45;2.25;;;2.50;99.90;;;;;;5097684;28;20442;-81
2021/12/06 01:27:09;;;;;;;1.50;1.00;;;2.50;99.90;;;;;;5097525;28;20047;-79
2021/12/06 01:39:51;;;;;;;1.30;1.20;;;2.50;99.90;;;;;;5097625;28;20474;-79
2021/12/06 01:42:17;;;;;;;4.47;3.72;;;2.50;99.90;;;;;;5097066;28;20130;-79
2021/12/06 01:44:47;;;;;;;2.15;1.85;;;2.50;99.90;;;;;;5096764;28;20480;-80
2021/12/06 01:47:16;;;;;;;1.45;1.30;;;2.50;99.90;;;;;;5095742;28;20048;-79
2021/12/06 01:49:51;;;;;;;2.17;2.00;;;2.50;99.90;;;;;;5096926;28;20051;-80
2021/12/06 01:52:22;;;;;;;2.60;1.33;;;2.70;99.90;;;;;;5097012;28;20048;-80
2021/12/06 01:54:49;;;;;;;1.08;0.98;;;2.50;99.90;;;;;;5097009;28;20485;-80
2021/12/06 01:57:15;;;;;;;;;;;2.50;99.90;;;;;;5095936;28;20043;-80
2021/12/06 01:59:40;;;;;;;0.75;0.75;;;2.50;99.90;;;;;;5096930;28;19973;-80
2021/12/06 02:02:08;;;;;;;0.70;0.70;;;2.50;99.90;;;;;;5096814;28;20476;-80
2021/12/06 02:04:35;;;;;;;1.50;1.40;;;2.50;99.90;;;;;;5096590;28;20135;-81
2021/12/06 02:07:02;;;;;;;3.67;2.65;;;2.50;99.90;;;;;;5095948;28;20379;-81
2021/12/06 02:09:28;;;;;;;1.10;1.00;;;2.50;99.90;;;;;;5095451;28;20051;-80
2021/12/06 02:11:57;;;;;;;1.67;1.57;;;2.50;99.90;;;;;;5096717;28;20047;-80
2021/12/06 02:17:16;;;;;;;0.60;0.60;;;2.50;99.90;;;;;;5096314;28;20056;-82
2021/12/06 02:19:47;;;;;;;1.67;1.58;;;2.60;99.90;;;;;;5096560;28;20055;-80
2021/12/06 02:22:17;;;;;;;0.60;0.60;;;2.60;99.90;;;;;;5096787;28;20051;-80
2021/12/06 02:24:43;;;;;;;1.23;1.13;;;2.50;99.90;;;;;;5096397;28;20055;-80
2021/12/06 02:27:11;;;;;;;5.47;3.67;;;2.50;99.90;;;;;;5094973;28;20052;-79
2021/12/06 02:29:38;;;;;;;0.60;0.60;;;2.50;99.90;;;;;;5095255;28;20059;-79
2021/12/06 02:32:09;;;;;;;;;;;2.60;99.90;;;;;;5096633;28;20044;-81
2021/12/06 02:34:35;;;;;;;0.73;0.73;;;2.60;99.90;;;;;;5095289;28;19920;-80
2021/12/06 02:37:05;;;;;;;2.22;2.13;;;2.60;99.90;;;;;;5096180;28;20093;-81
2021/12/06 02:39:31;;;;;;;0.70;0.70;;;2.60;99.90;;;;;;5096004;28;20502;-80
2021/12/06 02:41:59;;;;;;;0.82;0.82;;;2.60;99.90;;;;;;5095867;28;20048;-80
2021/12/06 02:44:26;;;;;;;1.83;1.73;;;3.10;99.90;;;;;;5095779;28;20511;-80
2021/12/06 02:46:52;;;;;;;0.95;0.80;;;2.60;99.90;;;;;;5095928;28;20087;-79
2021/12/06 02:49:18;;;;;;;1.55;1.45;;;2.50;99.90;;;;;;5095893;28;20075;-80
2021/12/06 02:51:43;;;;;;;0.60;0.60;;;2.60;99.90;;;;;;5095934;28;20044;-80
2021/12/06 02:54:10;;;;;;;0.70;0.70;;;2.60;99.90;;;;;;5095804;28;20439;-80
2021/12/06 02:56:51;;;;;;;1.48;1.38;;;2.60;99.90;;;;;;5095546;28;20074;-78
2021/12/06 02:59:19;;;;;;;1.48;1.13;;;2.60;99.90;;;;;;5095660;28;20557;-80
2021/12/06 03:01:48;;;;;;;6.90;3.10;;;2.80;99.90;;;;;;5094447;28;20086;-80
2021/12/06 03:04:15;;;;;;;1.00;1.00;;;2.60;99.90;;;;;;5095858;28;20392;-80
2021/12/06 03:06:41;;;;;;;0.60;0.60;;;2.60;99.90;;;;;;5095698;28;20351;-79
2021/12/06 03:09:12;;;;;;;0.82;0.82;;;3.10;99.90;;;;;;5095528;28;20092;-81
2021/12/06 03:11:43;;;;;;;5.93;2.33;;;2.70;99.90;;;;;;5095409;28;20119;-80
2021/12/06 03:14:15;;;;;;;1.15;1.05;;;2.70;99.90;;;;;;5096067;28;20051;-81
2021/12/06 03:16:42;;;;;;;0.50;0.50;;;2.70;99.90;;;;;;5093943;28;20135;-81
2021/12/06 03:19:09;;;;;;;2.40;1.25;;;2.50;99.90;;;;;;5095137;28;20129;-81
2021/12/06 03:21:35;;;;;;;0.85;0.85;;;2.60;99.90;;;;;;5094701;28;20055;-79
2021/12/06 03:24:02;;;;;;;8.48;4.47;;;2.60;99.90;;;;;;5095232;28;20423;-81
2021/12/06 03:26:29;;;;;;;0.52;0.52;;;2.70;99.90;;;;;;5095179;28;20044;-79
2021/12/06 03:28:55;;;;;;;1.67;1.40;;;2.70;99.90;;;;;;5095489;28;20044;-80
2021/12/06 03:31:23;;;;;;;0.70;0.70;;;2.70;99.90;;;;;;5095382;28;20515;-79
2021/12/06 03:33:50;;;;;;;0.65;0.65;;;2.70;99.90;;;;;;5095144;28;20044;-81
2021/12/06 03:36:19;;;;;;;1.52;1.30;;;2.40;99.90;;;;;;5094691;28;20040;-79
2021/12/06 03:38:46;;;;;;;1.80;1.70;;;2.70;99.90;;;;;;5094510;28;20450;-81
2021/12/06 03:41:13;;;;;;;0.90;0.90;;;2.80;99.90;;;;;;5093726;28;20046;-80
2021/12/06 03:43:40;;;;;;;0.93;0.93;;;2.70;99.90;;;;;;5111335;28;20044;-79
2021/12/06 03:46:07;;;;;;;0.70;0.70;;;2.70;99.90;;;;;;5094579;28;20559;-80
2021/12/06 03:48:32;;;;;;;0.77;0.77;;;2.70;99.90;;;;;;5094819;28;20044;-79
2021/12/06 03:50:59;;;;;;;2.65;2.55;;;2.70;99.90;;;;;;5094678;28;20135;-80
2021/12/06 03:53:25;;;;;;;1.35;1.25;;;2.70;99.90;;;;;;5094483;28;20553;-79
2021/12/06 03:55:51;;;;;;;8.27;3.40;;;2.80;99.90;;;;;;5094617;28;20051;-80
2021/12/06 03:58:16;;;;;;;2.67;2.45;;;2.70;99.90;;;;;;5094851;28;20040;-81
2021/12/06 04:00:42;;;;;;;3.45;1.85;;;2.80;99.90;;;;;;5094781;28;20092;-80
2021/12/06 04:03:09;;;;;;;1.00;1.00;;;2.80;99.90;;;;;;5094542;28;20047;-79
2021/12/06 04:05:36;;;;;;;2.42;2.25;;;;;;;;;;5093288;28;20127;-79
2021/12/06 04:08:01;;;;;;;0.90;0.90;;;2.70;99.90;;;;;;5093814;28;20048;-80
2021/12/06 04:10:27;;;;;;;1.27;1.23;;;2.20;99.90;;;;;;5094367;28;20051;-81
2021/12/06 04:12:58;;;;;;;5.95;3.17;;;2.70;99.90;;;;;;5094359;28;20514;-79
2021/12/06 04:15:29;;;;;;;1.50;0.73;;;2.60;99.90;;;;;;5094110;28;20071;-79
2021/12/06 04:17:56;;;;;;;3.80;2.53;;;2.50;99.90;;;;;;5094314;28;20067;-79
2021/12/06 04:20:22;;;;;;;3.83;3.42;;;2.60;99.90;;;;;;5092995;28;20048;-81
2021/12/06 04:22:47;;;;;;;1.17;1.13;;;2.60;99.90;;;;;;5093216;28;20040;-79
2021/12/06 04:25:15;;;;;;;0.75;0.75;;;2.90;99.90;;;;;;5094021;28;20066;-80
2021/12/06 04:27:41;;;;;;;1.80;1.70;;;2.60;99.90;;;;;;5093541;28;20365;-80
2021/12/06 04:30:10;;;;;;;1.15;1.05;;;2.60;99.90;;;;;;5094052;28;20055;-79
2021/12/06 04:32:35;;;;;;;1.48;1.38;;;2.60;99.90;;;;;;5093243;28;20472;-81
2021/12/06 04:35:01;;;;;;;0.63;0.63;;;2.60;99.90;;;;;;5093946;28;20055;-80
2021/12/06 04:37:27;;;;;;;0.63;0.63;;;2.60;99.90;;;;;;5092460;28;20056;-80
2021/12/06 04:39:53;;;;;;;2.25;2.10;;;2.60;99.90;;;;;;5093689;28;20047;-80
2021/12/06 04:42:20;;;;;;;0.88;0.88;;;2.70;99.90;;;;;;5094047;28;20048;-80
2021/12/06 04:44:46;;;;;;;0.77;0.77;;;2.70;99.90;;;;;;5093780;28;20136;-80
2021/12/06 04:47:12;;;;;;;2.13;2.03;;;2.70;99.90;;;;;;5093820;28;20196;-79
2021/12/06 04:49:38;;;;;;;3.10;2.80;;;2.60;99.90;;;;;;5093781;28;20397;-81
2021/12/06 04:52:08;;;;;;;1.73;1.63;;;2.70;99.90;;;;;;5093823;28;20047;-79
2021/12/06 04:54:37;;;;;;;1.70;1.60;;;2.60;99.90;;;;;;5094012;28;20094;-80
2021/12/06 04:57:15;;;;;;;1.60;1.50;;;2.60;99.90;;;;;;5093667;28;20070;-80
2021/12/06 04:59:57;;;;;;;4.05;2.97;;;2.60;99.90;;;;;;5093638;28;20119;-80
2021/12/06 05:02:32;;;;;;;1.73;1.63;;;2.60;99.90;;;;;;5093616;28;20044;-80
2021/12/06 05:05:03;;;;;;;1.73;1.63;;;2.60;99.90;;;;;;5094068;28;20134;-80
2021/12/06 05:07:39;;;;;;;1.35;1.25;;;2.60;99.90;;;;;;5093807;28;20092;-79
2021/12/06 05:10:07;;;;;;;1.42;1.33;;;2.60;99.90;;;;;;5093829;28;20071;-79
2021/12/06 05:12:34;;;;;;;1.15;0.98;;;2.60;99.90;;;;;;5093424;28;20047;-80
2021/12/06 05:15:00;;;;;;;1.15;1.15;;;2.60;99.90;;;;;;5093138;28;20476;-80
2021/12/06 05:17:26;;;;;;;0.73;0.73;;;2.60;99.90;;;;;;5093566;28;20044;-80
2021/12/06 05:19:52;;;;;;;1.57;1.50;;;2.60;99.90;;;;;;5093716;28;20102;-80
2021/12/06 05:22:18;;;;;;;2.20;2.05;;;2.60;99.90;;;;;;5093333;28;20508;-80
2021/12/06 05:24:43;;;;;;;1.77;1.67;;;2.60;99.90;;;;;;5093104;28;20446;-80
2021/12/06 05:27:09;;;;;;;0.60;0.60;;;2.60;99.90;;;;;;5093466;28;20048;-79
2021/12/06 05:29:38;;;;;;;1.48;1.38;;;2.60;99.90;;;;;;5093457;28;20036;-80
2021/12/06 05:32:04;;;;;;;2.00;1.90;;;2.60;99.90;;;;;;5093436;28;20051;-79
2021/12/06 05:34:41;;;;;;;6.95;4.53;;;2.60;99.90;;;;;;5093439;28;20032;-81
2021/12/06 05:37:09;;;;;;;1.83;1.73;;;2.70;99.90;;;;;;5093437;28;20040;-80
2021/12/06 05:39:36;;;;;;;3.22;2.88;;;2.70;99.90;;;;;;5093230;28;20070;-80
2021/12/06 05:42:05;;;;;;;1.63;1.50;;;2.60;99.90;;;;;;5093037;28;20044;-80
2021/12/06 05:44:31;;;;;;;0.60;0.60;;;2.60;99.90;;;;;;5095054;28;20040;-80
2021/12/06 05:46:59;;;;;;;1.55;1.45;;;2.70;99.90;;;;;;5096640;28;20059;-80
2021/12/06 05:49:25;;;;;;;1.95;1.77;;;2.60;99.90;;;;;;5096068;28;20097;-80
2021/12/06 05:51:51;;;;;;;;;;;2.60;99.90;;;;;;5097398;28;20055;-80
2021/12/06 05:54:17;;;;;;;0.70;0.70;;;2.60;99.90;;;;;;5096935;28;19924;-81
2021/12/06 05:56:44;;;;;;;3.40;2.28;;;2.70;99.90;;;;;;5096947;28;20089;-80
2021/12/06 05:59:10;;;;;;;0.60;0.60;;;2.80;99.90;;;;;;5096929;28;20431;-81
2021/12/06 06:01:36;;;;;;;0.70;0.70;;;2.70;99.90;;;;;;5096789;28;20083;-79
2021/12/06 06:04:02;;;;;;;6.13;4.32;;;2.70;99.90;;;;;;5095922;28;20367;-80
2021/12/06 06:06:32;;;;;;;1.88;1.75;;;2.60;99.90;;;;;;5095450;28;20044;-79
2021/12/06 06:08:59;;;;;;;4.53;4.03;;;2.60;99.90;;;;;;5097163;28;20036;-81
2021/12/06 06:11:25;;;;;;;10.05;1.90;;;2.60;99.90;;;;;;5096201;28;20418;-81
2021/12/06 06:13:51;;;;;;;1.67;1.42;;;2.50;99.90;;;;;;5096986;28;20054;-81
2021/12/06 06:16:19;;;;;;;3.25;2.63;;;2.80;99.90;;;;;;5095395;28;20518;-81
2021/12/06 06:18:48;;;;;;;2.17;2.03;;;2.50;99.90;;;;;;5095817;28;20036;-80
2021/12/06 06:21:13;;;;;;;23.83;4.32;;;2.50;99.90;;;;;;5078707;28;20079;-79
2021/12/06 06:23:39;;;;;;;2.33;2.22;;;2.50;99.90;;;;;;5095164;28;20518;-82
2021/12/06 06:26:05;;;;;;;1.45;1.35;;;2.50;99.90;;;;;;5096363;28;20047;-79
2021/12/06 06:28:31;;;;;;;1.80;1.70;;;2.50;99.90;;;;;;5096345;28;20040;-81
2021/12/06 06:30:56;;;;;;;1.05;1.05;;;2.50;99.90;;;;;;5096281;28;20051;-80
2021/12/06 06:33:22;;;;;;;1.50;1.30;;;2.50;99.90;;;;;;5096235;28;20491;-79
2021/12/06 06:35:47;;;;;;;1.38;1.27;;;2.50;99.90;;;;;;5096190;28;20101;-82
2021/12/06 06:38:15;;;;;;;0.70;0.70;;;2.50;99.90;;;;;;5095981;28;20036;-80
2021/12/06 06:40:40;;;;;;;1.20;1.15;;;2.50;99.90;;;;;;5096047;28;20040;-81
2021/12/06 06:43:06;;;;;;;4.60;4.20;;;2.50;99.90;;;;;;5096008;28;20084;-81
2021/12/06 06:45:33;;;;;;;0.90;0.90;;;2.50;99.90;;;;;;5094864;28;20047;-79
2021/12/06 06:47:59;;;;;;;4.57;1.58;;;2.30;99.90;;;;;;5095927;28;20053;-80
2021/12/06 06:50:25;;;;;;;0.77;0.77;;;2.50;99.90;;;;;;5095934;28;20048;-79
2021/12/06 06:52:51;;;;;;;1.37;1.27;;;2.40;99.90;;;;;;5095755;28;20044;-79
2021/12/06 06:55:18;;;;;;;2.35;2.20;;;2.40;99.90;;;;;;5094918;28;20048;-80
2021/12/06 06:57:45;;;;;;;1.30;1.23;;;2.40;99.90;;;;;;5095454;28;20526;-79
2021/12/06 07:00:12;;;;;;;;;;;2.50;99.90;;;;;;5096096;28;20450;-82
2021/12/06 07:02:38;;;;;;;0.80;0.80;;;2.40;99.90;;;;;;5095654;28;19966;-80
2021/12/06 07:05:05;;;;;;;6.63;3.03;;;2.50;99.90;;;;;;5095564;28;20290;-80
2021/12/06 07:07:30;;;;;;;5.53;5.03;;;2.50;99.90;;;;;;5095437;28;20044;-81
2021/12/06 07:09:56;;;;;;;2.22;2.08;;;2.40;99.90;;;;;;5077470;28;20432;-81
2021/12/06 07:12:21;;;;;;;0.60;0.60;;;2.50;99.90;;;;;;5094461;28;20052;-80
2021/12/06 07:14:47;;;;;;;0.60;0.60;;;2.40;99.90;;;;;;5095787;28;20051;-80
2021/12/06 07:17:15;;;;;;;8.45;3.75;;;2.50;99.90;;;;;;5095458;28;20056;-80
2021/12/06 07:19:40;;;;;;;4.28;3.90;;;2.40;99.90;;;;;;5095012;28;20047;-79
2021/12/06 07:22:07;;;;;;;1.83;1.48;;;2.30;99.90;;;;;;5094968;28;20040;-80
2021/12/06 07:24:32;;;;;;;1.25;1.20;;;2.20;99.90;;;;;;5093836;28;20044;-81
2021/12/06 07:26:58;;;;;;;2.25;2.05;;;2.30;99.90;;;;;;5095323;28;20044;-82
2021/12/06 07:29:24;;;;;;;2.30;2.20;;;2.30;99.90;;;;;;5094902;28;20123;-82
2021/12/06 07:31:53;;;;;;;1.13;1.13;;;2.30;99.90;;;;;;5094880;28;20044;-81
2021/12/06 07:34:19;;;;;;;3.63;3.40;;;2.30;99.90;;;;;;5094943;28;20399;-80
2021/12/06 07:36:45;;;;;;;2.15;1.95;;;2.20;99.90;;;;;;5094813;28;20052;-80
2021/12/06 07:39:11;;;;;;;0.60;0.60;;;2.30;99.90;;;;;;5095139;28;20036;-81
2021/12/06 07:41:37;;;;;;;2.40;2.25;;;2.20;99.90;;;;;;5094747;28;20537;-81
2021/12/06 07:44:04;;;;;;;0.80;0.80;;;2.30;99.90;;;;;;5094860;28;20048;-78
2021/12/06 07:46:30;;;;;;;2.22;1.50;;;2.10;99.90;;;;;;5094943;28;20048;-78
2021/12/06 07:48:56;;;;;;;0.82;0.82;;;2.10;99.90;;;;;;5094846;28;20065;-79
2021/12/06 07:51:24;;;;;;;2.20;2.05;;;2.10;99.90;;;;;;5094717;28;20476;-80
2021/12/06 07:53:51;;;;;;;1.90;1.80;;;2.00;99.90;;;;;;5093501;28;20122;-82
2021/12/06 07:56:17;;;;;;;4.43;4.07;;;2.10;99.90;;;;;;5094568;28;20048;-80
2021/12/06 07:58:43;;;;;;;0.70;0.70;;;2.10;99.90;;;;;;5092814;28;20561;-78
2021/12/06 08:01:09;;;;;;;1.45;1.35;;;2.10;99.90;;;;;;5093718;28;20364;-80
2021/12/06 08:03:37;;;;;;;0.60;0.60;;;2.10;99.90;;;;;;5094680;28;20044;-80
2021/12/06 08:06:03;;;;;;;1.35;1.25;;;2.20;99.90;;;;;;5094280;28;20044;-81
2021/12/06 08:08:31;;;;;;;0.70;0.70;;;2.10;99.90;;;;;;5094878;28;20083;-81
2021/12/06 08:11:04;;;;;;;2.47;2.20;;;2.10;99.90;;;;;;5094415;28;20135;-80
2021/12/06 08:13:33;;;;;;;1.05;1.02;;;2.10;99.90;;;;;;5094830;28;20066;-79
2021/12/06 08:16:08;;;;;;;2.05;1.95;;;2.10;99.90;;;;;;5094307;28;20055;-80
2021/12/06 08:18:33;;;;;;;2.47;1.60;;;2.00;99.90;;;;;;5094255;28;20411;-81
2021/12/06 08:21:00;;;;;;;2.25;2.00;;;2.00;99.90;;;;;;5094233;28;20123;-81
2021/12/06 08:23:27;;;;;;;4.30;2.28;;;2.00;99.90;;;;;;5094581;28;20052;-82
2021/12/06 08:25:53;;;;;;;1.42;1.33;;;2.10;99.90;;;;;;5094531;28;20097;-79
2021/12/06 08:28:20;;;;;;;0.67;0.67;;;2.00;99.90;;;;;;5092672;28;20082;-81
2021/12/06 08:30:46;;;;;;;1.83;1.73;;;2.10;99.90;;;;;;5093154;28;20322;-80
2021/12/06 08:33:15;;;;;;;1.87;1.77;;;2.00;99.90;;;;;;5094041;28;20044;-81
2021/12/06 08:35:45;;;;;;;1.20;1.10;;;2.10;99.90;;;;;;5094712;28;20395;-79
2021/12/06 08:38:13;;;;;;;1.63;1.02;;;2.00;99.90;;;;;;5094505;28;20131;-81
2021/12/06 08:40:41;;;;;;;2.50;1.45;;;2.00;99.90;;;;;;5093917;28;20040;-81
2021/12/06 08:43:07;;;;;;;3.45;2.38;;;2.10;99.90;;;;;;5093890;28;20055;-81
2021/12/06 08:45:36;;;;;;;1.00;0.97;;;2.10;99.90;;;;;;5093887;28;20051;-80
2021/12/06 08:48:02;;;;;;;0.70;0.70;;;2.10;99.90;;;;;;5093552;28;20427;-80
2021/12/06 08:50:29;;;;;;;1.40;1.30;;;2.10;99.90;;;;;;5093816;28;20044;-81
2021/12/06 08:52:56;;;;;;;4.03;3.05;;;2.10;99.90;;;;;;5093830;28;20051;-81
2021/12/06 08:55:23;;;;;;;1.20;1.10;;;2.10;99.90;;;;;;5109554;28;20044;-79
2021/12/06 08:57:50;;;;;;;0.70;0.70;;;2.20;99.90;;;;;;5093841;28;20051;-80
2021/12/06 09:00:19;;;;;;;;;;;2.10;99.90;;;;;;5094184;28;20517;-81
2021/12/06 09:02:45;;;;;;;2.35;1.35;;;2.20;99.90;;;;;;5093733;28;19927;-80
2021/12/06 09:05:11;;;;;;;5.97;5.38;;;2.20;99.90;;;;;;5093787;28;20056;-80
2021/12/06 09:07:37;;;;;;;4.85;4.53;;;2.20;99.90;;;;;;5092517;28;20130;-78
2021/12/06 09:10:04;;;;;;;2.75;2.58;;;3.20;99.90;;;;;;5093704;28;20456;-80
2021/12/06 09:12:31;;;;;;;1.77;1.35;;;2.10;99.90;;;;;;5092560;28;20092;-80
2021/12/06 09:14:58;;;;;;;;;;;2.10;99.90;;;;;;5093996;28;20059;-80
2021/12/06 09:17:24;;;;;;;1.30;1.20;;;2.00;99.90;;;;;;5093885;28;19975;-81
2021/12/06 09:19:50;;;;;;;0.93;0.90;;;2.00;99.90;;;;;;5096875;28;20040;-80
2021/12/06 09:22:16;;;;;;;0.70;0.70;;;2.10;99.90;;;;;;5097706;28;20040;-81
2021/12/06 09:24:42;;;;;;;0.85;0.85;;;;;;;;;;5097587;28;20085;-80
2021/12/06 09:27:09;;;;;;;5.78;4.43;;;2.10;99.90;;;;;;5097534;28;20048;-79
2021/12/06 09:29:39;;;;;;;0.70;0.70;;;2.10;99.90;;;;;;5097516;28;20048;-80
2021/12/06 09:32:07;;;;;;;1.02;1.00;;;2.10;99.90;;;;;;5097639;28;20515;-80
2021/12/06 09:34:34;;;;;;;1.83;1.73;;;2.10;99.90;;;;;;5097433;28;20534;-81
2021/12/06 09:37:00;;;;;;;;;;;2.10;99.90;;;;;;5097797;28;20105;-80
2021/12/06 09:39:26;;;;;;;8.02;2.65;;;2.50;99.90;;;;;;5096351;28;20356;-80
2021/12/06 09:41:52;;;;;;;4.90;3.90;;;2.20;99.90;;;;;;5097372;28;20073;-79
2021/12/06 09:44:18;;;;;;;0.98;0.70;;;2.20;99.90;;;;;;5097196;28;20396;-79
2021/12/06 09:46:45;;;;;;;2.85;0.70;;;2.20;99.90;;;;;;5096849;28;20044;-81
2021/12/06 09:49:13;;;;;;;;;;;2.20;99.90;;;;;;5097529;28;20051;-80
2021/12/06 09:51:42;;;;;;;2.97;2.78;;;2.30;99.90;;;;;;5097095;28;19926;-80
2021/12/06 09:54:09;;;;;;;1.88;1.77;;;2.10;99.90;;;;;;5097041;28;20093;-81
2021/12/06 09:56:39;;;;;;;2.88;2.67;;;2.30;99.90;;;;;;5097010;28;20044;-80
2021/12/06 09:59:10;;;;;;;1.77;1.73;;;2.30;99.90;;;;;;5095710;28;20105;-80
2021/12/06 10:01:50;;;;;;;1.10;1.10;;;2.50;99.90;;;;;;5096598;28;20044;-82
2021/12/06 10:04:20;;;;;;;0.95;0.90;;;2.30;99.90;;;;;;5096849;28;20040;-80
2021/12/06 10:06:48;;;;;;;0.88;0.88;;;2.30;99.90;;;;;;5097043;28;20113;-81
2021/12/06 10:09:18;;;;;;;1.55;1.45;;;2.30;99.90;;;;;;5096672;28;20036;-81
2021/12/06 10:11:45;;;;;;;1.65;0.98;;;2.30;99.90;;;;;;5096518;28;20479;-82
2021/12/06 10:14:12;;;;;;;0.80;0.80;;;2.40;99.90;;;;;;5095688;28;20052;-81
2021/12/06 10:16:39;;;;;;;4.43;3.13;;;2.40;99.90;;;;;;5095264;28;20055;-81
2021/12/06 10:19:06;;;;;;;0.70;0.70;;;2.40;99.90;;;;;;5096591;28;20499;-81
2021/12/06 10:21:33;;;;;;;0.93;0.93;;;2.50;99.90;;;;;;5096611;28;20387;-80
2021/12/06 10:23:59;;;;;;;1.38;1.27;;;2.50;99.90;;;;;;5095455;28;20040;-79
2021/12/06 10:26:30;;;;;;;1.00;1.00;;;2.40;99.90;;;;;;5096941;28;20079;-79
2021/12/06 10:29:04;;;;;;;3.15;2.95;;;2.60;99.90;;;;;;5096718;28;20036;-80
2021/12/06 10:31:32;;;;;;;2.83;2.58;;;2.70;99.90;;;;;;5094521;28;20044;-81
2021/12/06 10:33:58;;;;;;;0.60;0.60;;;2.70;99.90;;;;;;5095069;28;20047;-80
2021/12/06 10:36:26;;;;;;;0.80;0.80;;;2.70;99.90;;;;;;5096235;28;20044;-80
2021/12/06 10:38:58;;;;;;;3.53;3.25;;;2.70;99.90;;;;;;5096110;28;20119;-79
2021/12/06 10:41:26;;;;;;;9.93;2.72;;;2.70;99.90;;;;;;5096178;28;20040;-81
2021/12/06 10:43:59;;;;;;;1.40;1.27;;;2.70;99.90;;;;;;5096082;28;20048;-80
2021/12/06 10:46:26;;;;;;;0.75;0.75;;;2.70;99.90;;;;;;5096001;28;20040;-80
2021/12/06 10:48:56;;;;;;;;;;;2.30;99.90;;;;;;5096551;28;20054;-81
2021/12/06 10:51:23;;;;;;;1.73;1.60;;;2.70;99.90;;;;;;5095597;28;19920;-81
2021/12/06 10:54:04;;;;;;;1.45;1.35;;;2.70;99.90;;;;;;5095907;28;20043;-80
2021/12/06 10:56:41;;;;;;;1.13;0.93;;;2.70;99.90;;;;;;5095364;28;20044;-81
2021/12/06 10:59:21;;;;;;;0.60;0.60;;;2.70;99.90;;;;;;5095915;28;20434;-82
2021/12/06 11:01:48;;;;;;;0.90;0.90;;;2.70;99.90;;;;;;5094914;28;20127;-78
2021/12/06 11:04:17;;;;;;;1.70;1.60;;;2.70;99.90;;;;;;5095373;28;20048;-81
2021/12/06 11:06:46;;;;;;;0.60;0.60;;;2.70;99.90;;;;;;5095412;28;20044;-80
2021/12/06 11:09:15;;;;;;;1.67;1.58;;;2.80;99.90;;;;;;5094956;28;20058;-80
2021/12/06 11:11:44;;;;;;;0.70;0.70;;;2.80;99.90;;;;;;5095434;28;20040;-76
2021/12/06 11:14:19;;;;;;;2.38;2.17;;;2.90;99.90;;;;;;5095762;28;20040;-81
2021/12/06 11:16:59;;;;;;;0.60;0.60;;;2.90;99.90;;;;;;5096115;28;20176;-79
2021/12/06 11:19:28;;;;;;;3.05;2.17;;;2.90;99.90;;;;;;5095361;28;20094;-79
2021/12/06 11:22:00;;;;;;;0.93;0.93;;;2.90;99.90;;;;;;5095152;28;20044;-79
2021/12/06 11:24:27;;;;;;;1.25;1.15;;;2.90;99.90;;;;;;5095253;28;20048;-80
2021/12/06 11:27:04;;;;;;;1.25;1.20;;;2.80;99.90;;;;;;5095160;28;20087;-79
2021/12/06 11:29:36;;;;;;;1.27;1.17;;;2.60;99.90;;;;;;5111509;28;20059;-78
2021/12/06 11:32:05;;;;;;;0.75;0.75;;;2.80;99.90;;;;;;5095406;28;20048;-79
2021/12/06 11:34:42;;;;;;;1.52;1.42;;;2.90;99.90;;;;;;5095029;28;20097;-80
2021/12/06 11:37:16;;;;;;;1.50;1.40;;;2.90;99.90;;;;;;5095044;28;20044;-81
2021/12/06 11:39:44;;;;;;;0.60;0.60;;;3.00;99.90;;;;;;5093605;28;20043;-79
2021/12/06 11:42:10;;;;;;;0.70;0.70;;;3.00;99.90;;;;;;5094293;28;20101;-79
2021/12/06 11:44:42;;;;;;;1.00;0.90;;;3.00;99.90;;;;;;5094859;28;20040;-80
2021/12/06 11:47:12;;;;;;;1.00;1.00;;;3.00;99.90;;;;;;5094907;28;20080;-83
2021/12/06 11:49:59;;;;;;;1.20;1.10;;;3.10;99.90;;;;;;5094482;28;20475;-78
2021/12/06 11:52:31;;;;;;;2.42;2.22;;;3.20;99.90;;;;;;5094863;28;20487;-81
2021/12/06 11:55:10;;;;;;;1.83;1.73;;;3.20;99.90;;;;;;5094786;28;20100;-77
2021/12/06 11:57:42;;;;;;;1.00;0.95;;;3.20;99.90;;;;;;5094644;28;20036;-76
2021/12/06 12:00:21;;;;;;;0.63;0.63;;;3.20;99.90;;;;;;5094511;28;20479;-77
2021/12/06 12:02:53;;;;;;;0.98;0.93;;;3.30;99.90;;;;;;5094549;28;20056;-77
2021/12/06 12:05:22;;;;;;;0.60;0.60;;;3.30;99.90;;;;;;5093508;28;20054;-77
2021/12/06 12:08:09;;;;;;;5.78;1.33;;;2.80;99.90;;;;;;5094063;28;20070;-78
2021/12/06 12:10:44;;;;;;;12.38;3.60;;;3.40;99.90;;;;;;5094411;28;20040;-77
2021/12/06 12:13:33;;;;;;;0.60;0.60;;;3.40;99.90;;;;;;5094878;28;20048;-77
2021/12/06 12:16:04;;;;;;;2.08;1.95;;;3.40;99.90;;;;;;5094245;28;20055;-77
2021/12/06 12:18:31;;;;;;;1.58;1.45;;;3.40;99.90;;;;;;5094465;28;20112;-77
2021/12/06 12:20:57;;;;;;;1.77;1.67;;;3.50;99.90;;;;;;5094322;28;20047;-77
2021/12/06 12:23:26;;;;;;;1.45;1.35;;;3.50;99.90;;;;;;5094123;28;20163;-78
2021/12/06 12:26:02;;;;;;;1.42;1.33;;;3.60;99.90;;;;;;5094746;28;20044;-77
2021/12/06 12:28:39;;;;;;;1.17;1.15;;;3.60;99.90;;;;;;5094437;28;20044;-77
2021/12/06 12:31:08;;;;;;;1.33;1.23;;;3.60;99.90;;;;;;5094148;28;20044;-77
2021/12/06 12:33:36;;;;;;;1.85;1.65;;;3.60;99.90;;;;;;5094012;28;20043;-77
2021/12/06 12:36:06;;;;;;;0.70;0.70;;;3.60;99.90;;;;;;5093700;28;20407;-77
2021/12/06 12:38:34;;;;;;;1.70;1.60;;;3.60;99.90;;;;;;5093935;28;20082;-77
2021/12/06 12:41:05;;;;;;;3.90;2.45;;;3.60;99.90;;;;;;5093890;28;20047;-77
2021/12/06 12:43:44;;;;;;;1.00;1.00;;;3.60;99.90;;;;;;5094161;28;20093;-77
2021/12/06 12:46:14;;;;;;;0.70;0.70;;;3.60;99.90;;;;;;5093879;28;20044;-77
2021/12/06 12:48:48;;;;;;;1.25;1.15;;;4.20;99.90;;;;;;5092779;28;20042;-77
2021/12/06 12:51:17;;;;;;;7.35;3.90;;;3.70;99.90;;;;;;5094190;28;20047;-77
2021/12/06 12:54:03;;;;;;;1.38;1.27;;;3.60;99.90;;;;;;5093005;28;20132;-77
2021/12/06 12:56:33;;;;;;;0.80;0.80;;;3.60;99.90;;;;;;5093812;28;20044;-77
2021/12/06 12:59:15;;;;;;;1.15;1.15;;;3.60;99.90;;;;;;5093565;28;20127;-77
2021/12/06 13:01:45;;;;;;;5.03;4.60;;;3.70;99.90;;;;;;5092744;28;20093;-77
2021/12/06 13:04:12;;;;;;;6.07;2.35;;;3.70;99.90;;;;;;5093709;28;20173;-77
2021/12/06 13:06:39;;;;;;;0.80;0.80;;;3.70;99.90;;;;;;5093704;28;20108;-77
2021/12/06 13:09:19;;;;;;;0.90;0.90;;;3.70;99.90;;;;;;5093650;28;20075;-77
2021/12/06 13:11:46;;;;;;;0.60;0.60;;;3.60;99.90;;;;;;5094124;28;20048;-77
2021/12/06 13:14:49;;;;;;;1.90;1.80;;;3.60;99.90;;;;;;5092571;28;20399;-77
2021/12/06 13:17:26;;;;;;;2.25;2.05;;;3.60;99.90;;;;;;5093701;28;20106;-77
2021/12/06 13:20:12;;;;;;;0.70;0.70;;;3.60;99.90;;;;;;5093545;28;20083;-77